Segui, Argentina
Current Conditions -  °F | °C
As of 6:00 AM on Sunday 23 Nov 2014 (Local Time) from SAAR Reporting Station
Clear Clear  
Wind Chill: 13°   Ceiling: Unl
Heat Index: 13°   Visibility: 6mi
Dew Point: 12°   Wind: 3mph
Humidity: 94%   Direction: 290°WNW
Pressure: 29.88"   Gusts: NA
Location:  31.95°S, 60.13°W
Report Text: SAAR 230900Z 29003KT CAVOK 13/12 Q1012
Loading
Personal Weather Stations






























Interactive Weather Map New forecast layout! Learn more

10-Day Weather Forecast

Advertisements
Track Severe Weather on mobile